sensor_id;sensor_type;location;lat;lon;timestamp;temperature;humidity
9939;DHT22;5008;50.656;7.188;2023-04-23T04:03:09;11.70;99.90
9939;DHT22;5008;50.656;7.188;2023-04-23T04:05:36;11.70;99.90
9939;DHT22;5008;50.656;7.188;2023-04-23T04:08:03;11.70;99.90
9939;DHT22;5008;50.656;7.188;2023-04-23T04:10:30;11.70;99.90
9939;DHT22;5008;50.656;7.188;2023-04-23T04:12:57;11.70;99.90
9939;DHT22;5008;50.656;7.188;2023-04-23T04:15:24;11.70;99.90
9939;DHT22;5008;50.656;7.188;2023-04-23T04:17:54;11.70;99.90
9939;DHT22;5008;50.656;7.188;2023-04-23T04:20:22;11.80;99.90
9939;DHT22;5008;50.656;7.188;2023-04-23T04:22:49;11.80;99.90
9939;DHT22;5008;50.656;7.188;2023-04-23T04:25:16;11.80;99.90
9939;DHT22;5008;50.656;7.188;2023-04-23T04:27:43;11.80;99.90
9939;DHT22;5008;50.656;7.188;2023-04-23T04:30:10;11.80;99.90
9939;DHT22;5008;50.656;7.188;2023-04-23T04:32:37;11.90;99.90
9939;DHT22;5008;50.656;7.188;2023-04-23T04:35:05;11.80;99.90
9939;DHT22;5008;50.656;7.188;2023-04-23T04:37:34;11.80;99.90
9939;DHT22;5008;50.656;7.188;2023-04-23T04:40:01;11.80;99.90
9939;DHT22;5008;50.656;7.188;2023-04-23T04:42:31;11.80;99.90
9939;DHT22;5008;50.656;7.188;2023-04-23T04:44:58;11.80;99.90
9939;DHT22;5008;50.656;7.188;2023-04-23T04:47:25;11.80;99.90
9939;DHT22;5008;50.656;7.188;2023-04-23T04:49:53;11.80;99.90
9939;DHT22;5008;50.656;7.188;2023-04-23T04:52:22;11.80;99.90
9939;DHT22;5008;50.656;7.188;2023-04-23T04:54:50;11.80;99.90
9939;DHT22;5008;50.656;7.188;2023-04-23T04:57:17;11.90;99.90
9939;DHT22;5008;50.656;7.188;2023-04-23T04:59:47;11.90;99.90
9939;DHT22;5008;50.656;7.188;2023-04-23T05:02:14;11.90;99.90
9939;DHT22;5008;50.656;7.188;2023-04-23T05:04:41;11.90;99.90
9939;DHT22;5008;50.656;7.188;2023-04-23T05:07:08;12.00;99.90
9939;DHT22;5008;50.656;7.188;2023-04-23T05:09:36;12.10;99.90
9939;DHT22;5008;50.656;7.188;2023-04-23T05:12:04;12.20;99.90
9939;DHT22;5008;50.656;7.188;2023-04-23T05:14:32;12.20;99.90
9939;DHT22;5008;50.656;7.188;2023-04-23T05:16:59;12.30;99.90
9939;DHT22;5008;50.656;7.188;2023-04-23T05:19:26;12.30;99.90
9939;DHT22;5008;50.656;7.188;2023-04-23T05:21:53;12.40;99.90
9939;DHT22;5008;50.656;7.188;2023-04-23T05:24:20;12.50;99.90
9939;DHT22;5008;50.656;7.188;2023-04-23T05:26:47;12.60;99.90
9939;DHT22;5008;50.656;7.188;2023-04-23T05:29:15;12.60;99.90
9939;DHT22;5008;50.656;7.188;2023-04-23T05:31:45;12.60;99.90
9939;DHT22;5008;50.656;7.188;2023-04-23T05:34:12;12.70;99.90
9939;DHT22;5008;50.656;7.188;2023-04-23T05:36:39;12.70;99.90
9939;DHT22;5008;50.656;7.188;2023-04-23T05:39:06;12.80;99.90
9939;DHT22;5008;50.656;7.188;2023-04-23T05:41:33;12.80;99.90
9939;DHT22;5008;50.656;7.188;2023-04-23T05:44:00;12.80;99.90
9939;DHT22;5008;50.656;7.188;2023-04-23T05:46:28;12.80;99.90
9939;DHT22;5008;50.656;7.188;2023-04-23T05:48:55;12.80;99.90
9939;DHT22;5008;50.656;7.188;2023-04-23T05:51:21;12.80;99.90
9939;DHT22;5008;50.656;7.188;2023-04-23T05:53:48;12.90;99.90
9939;DHT22;5008;50.656;7.188;2023-04-23T05:56:15;12.90;99.90
9939;DHT22;5008;50.656;7.188;2023-04-23T05:58:42;12.90;99.90
9939;DHT22;5008;50.656;7.188;2023-04-23T06:01:08;12.90;99.90
9939;DHT22;5008;50.656;7.188;2023-04-23T06:03:37;13.00;99.90
9939;DHT22;5008;50.656;7.188;2023-04-23T06:06:06;13.00;99.90
9939;DHT22;5008;50.656;7.188;2023-04-23T06:08:57;13.00;99.90
9939;DHT22;5008;50.656;7.188;2023-04-23T06:11:24;13.10;99.90
9939;DHT22;5008;50.656;7.188;2023-04-23T06:13:51;13.10;99.90
9939;DHT22;5008;50.656;7.188;2023-04-23T06:16:18;13.20;99.90
9939;DHT22;5008;50.656;7.188;2023-04-23T06:18:46;13.20;99.90
9939;DHT22;5008;50.656;7.188;2023-04-23T06:21:13;13.30;99.90
9939;DHT22;5008;50.656;7.188;2023-04-23T06:23:40;13.30;99.90
9939;DHT22;5008;50.656;7.188;2023-04-23T06:26:06;13.30;99.90
9939;DHT22;5008;50.656;7.188;2023-04-23T06:28:33;13.30;99.90
9939;DHT22;5008;50.656;7.188;2023-04-23T06:31:00;13.40;99.90
9939;DHT22;5008;50.656;7.188;2023-04-23T06:33:28;13.30;99.90
9939;DHT22;5008;50.656;7.188;2023-04-23T06:35:56;13.30;99.90
9939;DHT22;5008;50.656;7.188;2023-04-23T06:38:23;13.40;99.90
9939;DHT22;5008;50.656;7.188;2023-04-23T06:41:01;13.40;99.90
9939;DHT22;5008;50.656;7.188;2023-04-23T06:43:28;13.40;99.90
9939;DHT22;5008;50.656;7.188;2023-04-23T06:45:55;13.40;99.90
9939;DHT22;5008;50.656;7.188;2023-04-23T06:48:22;13.40;99.90
9939;DHT22;5008;50.656;7.188;2023-04-23T06:50:50;13.30;99.90
9939;DHT22;5008;50.656;7.188;2023-04-23T06:53:18;13.30;99.90
9939;DHT22;5008;50.656;7.188;2023-04-23T06:55:45;13.30;99.90
9939;DHT22;5008;50.656;7.188;2023-04-23T06:58:14;13.40;99.90
9939;DHT22;5008;50.656;7.188;2023-04-23T07:00:41;13.40;99.90
9939;DHT22;5008;50.656;7.188;2023-04-23T07:03:08;13.50;99.90
9939;DHT22;5008;50.656;7.188;2023-04-23T07:05:34;13.50;99.90
9939;DHT22;5008;50.656;7.188;2023-04-23T07:08:01;13.60;99.90
9939;DHT22;5008;50.656;7.188;2023-04-23T07:10:29;13.60;99.90
9939;DHT22;5008;50.656;7.188;2023-04-23T07:12:56;13.70;99.90
9939;DHT22;5008;50.656;7.188;2023-04-23T07:15:23;13.90;99.90
9939;DHT22;5008;50.656;7.188;2023-04-23T07:17:50;13.90;99.90
9939;DHT22;5008;50.656;7.188;2023-04-23T07:20:17;14.00;99.90
9939;DHT22;5008;50.656;7.188;2023-04-23T07:22:44;14.00;99.90
9939;DHT22;5008;50.656;7.188;2023-04-23T07:25:11;14.20;99.90
9939;DHT22;5008;50.656;7.188;2023-04-23T07:27:39;14.20;99.90
9939;DHT22;5008;50.656;7.188;2023-04-23T07:30:07;14.30;99.90
9939;DHT22;5008;50.656;7.188;2023-04-23T07:32:34;14.40;99.90
9939;DHT22;5008;50.656;7.188;2023-04-23T07:35:01;14.40;99.90
9939;DHT22;5008;50.656;7.188;2023-04-23T07:37:29;14.40;99.90
9939;DHT22;5008;50.656;7.188;2023-04-23T07:39:56;14.50;99.90
9939;DHT22;5008;50.656;7.188;2023-04-23T07:42:23;14.50;99.90
9939;DHT22;5008;50.656;7.188;2023-04-23T07:44:51;14.60;99.90
9939;DHT22;5008;50.656;7.188;2023-04-23T07:47:17;14.60;99.90
9939;DHT22;5008;50.656;7.188;2023-04-23T07:49:45;14.60;99.90
9939;DHT22;5008;50.656;7.188;2023-04-23T07:52:11;14.60;99.90
9939;DHT22;5008;50.656;7.188;2023-04-23T07:54:39;14.60;99.90
9939;DHT22;5008;50.656;7.188;2023-04-23T07:57:06;14.70;99.90
9939;DHT22;5008;50.656;7.188;2023-04-23T07:59:34;14.80;99.90
9939;DHT22;5008;50.656;7.188;2023-04-23T08:02:02;15.00;99.90
9939;DHT22;5008;50.656;7.188;2023-04-23T08:04:29;15.20;99.90
9939;DHT22;5008;50.656;7.188;2023-04-23T08:06:56;15.40;99.90
9939;DHT22;5008;50.656;7.188;2023-04-23T08:09:24;15.40;99.90
9939;DHT22;5008;50.656;7.188;2023-04-23T08:11:51;15.50;99.90
9939;DHT22;5008;50.656;7.188;2023-04-23T08:14:19;15.60;99.90
9939;DHT22;5008;50.656;7.188;2023-04-23T08:16:45;15.80;99.90
9939;DHT22;5008;50.656;7.188;2023-04-23T08:19:14;15.90;99.90
9939;DHT22;5008;50.656;7.188;2023-04-23T08:21:41;16.00;99.90
9939;DHT22;5008;50.656;7.188;2023-04-23T08:24:08;16.10;99.90
9939;DHT22;5008;50.656;7.188;2023-04-23T08:26:35;16.20;99.90
9939;DHT22;5008;50.656;7.188;2023-04-23T08:29:02;16.30;99.90
9939;DHT22;5008;50.656;7.188;2023-04-23T08:31:29;16.30;99.90
9939;DHT22;5008;50.656;7.188;2023-04-23T08:34:03;16.40;99.90
9939;DHT22;5008;50.656;7.188;2023-04-23T08:36:33;16.40;99.90
9939;DHT22;5008;50.656;7.188;2023-04-23T08:39:00;16.60;99.90
9939;DHT22;5008;50.656;7.188;2023-04-23T08:41:34;16.50;99.90
9939;DHT22;5008;50.656;7.188;2023-04-23T08:44:09;16.60;99.90
9939;DHT22;5008;50.656;7.188;2023-04-23T08:46:42;16.70;99.90
9939;DHT22;5008;50.656;7.188;2023-04-23T08:49:13;16.70;99.90
9939;DHT22;5008;50.656;7.188;2023-04-23T08:51:47;16.70;99.90
9939;DHT22;5008;50.656;7.188;2023-04-23T08:54:27;16.70;99.90
9939;DHT22;5008;50.656;7.188;2023-04-23T08:56:57;16.70;99.90
9939;DHT22;5008;50.656;7.188;2023-04-23T08:59:30;16.80;99.90
9939;DHT22;5008;50.656;7.188;2023-04-23T09:02:06;16.70;99.90
9939;DHT22;5008;50.656;7.188;2023-04-23T09:04:36;16.70;99.90
9939;DHT22;5008;50.656;7.188;2023-04-23T09:07:05;16.80;99.90
9939;DHT22;5008;50.656;7.188;2023-04-23T09:09:36;16.90;99.90
9939;DHT22;5008;50.656;7.188;2023-04-23T09:12:04;16.90;99.90
9939;DHT22;5008;50.656;7.188;2023-04-23T09:14:34;17.00;99.90
9939;DHT22;5008;50.656;7.188;2023-04-23T09:17:02;17.10;99.90
9939;DHT22;5008;50.656;7.188;2023-04-23T09:19:38;17.20;99.90
9939;DHT22;5008;50.656;7.188;2023-04-23T09:22:06;17.30;99.90
9939;DHT22;5008;50.656;7.188;2023-04-23T09:24:34;17.30;99.90
9939;DHT22;5008;50.656;7.188;2023-04-23T09:27:01;17.20;99.90
9939;DHT22;5008;50.656;7.188;2023-04-23T09:29:29;17.20;99.90
9939;DHT22;5008;50.656;7.188;2023-04-23T09:32:05;17.20;99.90
9939;DHT22;5008;50.656;7.188;2023-04-23T09:34:34;17.40;99.90
9939;DHT22;5008;50.656;7.188;2023-04-23T09:37:01;17.40;99.90
9939;DHT22;5008;50.656;7.188;2023-04-23T09:39:33;17.30;99.90
9939;DHT22;5008;50.656;7.188;2023-04-23T09:42:02;17.50;99.90
9939;DHT22;5008;50.656;7.188;2023-04-23T09:44:39;17.60;99.90
9939;DHT22;5008;50.656;7.188;2023-04-23T09:47:07;17.70;99.90
9939;DHT22;5008;50.656;7.188;2023-04-23T09:49:45;17.70;99.90
9939;DHT22;5008;50.656;7.188;2023-04-23T09:52:13;17.70;99.90
9939;DHT22;5008;50.656;7.188;2023-04-23T09:54:42;17.60;99.90
9939;DHT22;5008;50.656;7.188;2023-04-23T09:57:11;17.70;99.90
9939;DHT22;5008;50.656;7.188;2023-04-23T09:59:38;17.60;99.90
9939;DHT22;5008;50.656;7.188;2023-04-23T10:02:06;17.50;99.90
9939;DHT22;5008;50.656;7.188;2023-04-23T10:07:39;17.40;99.90
9939;DHT22;5008;50.656;7.188;2023-04-23T10:10:08;17.40;99.90
9939;DHT22;5008;50.656;7.188;2023-04-23T10:12:36;17.40;99.90
9939;DHT22;5008;50.656;7.188;2023-04-23T10:15:04;17.50;99.90
9939;DHT22;5008;50.656;7.188;2023-04-23T10:17:31;17.60;99.90
9939;DHT22;5008;50.656;7.188;2023-04-23T10:19:59;17.70;99.90
9939;DHT22;5008;50.656;7.188;2023-04-23T10:22:38;17.70;99.90
9939;DHT22;5008;50.656;7.188;2023-04-23T10:25:10;17.90;99.90
9939;DHT22;5008;50.656;7.188;2023-04-23T10:27:39;18.00;99.90
9939;DHT22;5008;50.656;7.188;2023-04-23T10:30:07;18.10;99.90
9939;DHT22;5008;50.656;7.188;2023-04-23T10:32:35;18.20;99.90
9939;DHT22;5008;50.656;7.188;2023-04-23T10:35:02;18.20;99.90
9939;DHT22;5008;50.656;7.188;2023-04-23T10:37:30;18.20;99.90
9939;DHT22;5008;50.656;7.188;2023-04-23T10:40:02;18.20;99.90
9939;DHT22;5008;50.656;7.188;2023-04-23T10:42:31;18.10;99.90
9939;DHT22;5008;50.656;7.188;2023-04-23T10:44:58;18.00;99.90
9939;DHT22;5008;50.656;7.188;2023-04-23T10:47:25;17.90;99.90
9939;DHT22;5008;50.656;7.188;2023-04-23T10:49:52;17.90;99.90
9939;DHT22;5008;50.656;7.188;2023-04-23T10:52:19;17.80;99.90
9939;DHT22;5008;50.656;7.188;2023-04-23T10:54:48;17.80;99.90
9939;DHT22;5008;50.656;7.188;2023-04-23T10:57:15;17.90;99.90
9939;DHT22;5008;50.656;7.188;2023-04-23T10:59:51;17.90;99.90
9939;DHT22;5008;50.656;7.188;2023-04-23T11:02:18;17.90;99.90
9939;DHT22;5008;50.656;7.188;2023-04-23T11:04:46;17.90;99.90
9939;DHT22;5008;50.656;7.188;2023-04-23T11:07:18;17.90;99.90
9939;DHT22;5008;50.656;7.188;2023-04-23T11:09:45;17.90;99.90
9939;DHT22;5008;50.656;7.188;2023-04-23T11:12:29;18.00;99.90
9939;DHT22;5008;50.656;7.188;2023-04-23T11:14:58;18.20;99.90
9939;DHT22;5008;50.656;7.188;2023-04-23T11:17:57;18.40;99.90
9939;DHT22;5008;50.656;7.188;2023-04-23T11:20:24;18.50;99.90
9939;DHT22;5008;50.656;7.188;2023-04-23T11:22:51;18.60;99.90
9939;DHT22;5008;50.656;7.188;2023-04-23T11:25:20;18.80;99.90
9939;DHT22;5008;50.656;7.188;2023-04-23T11:27:49;18.90;99.80
9939;DHT22;5008;50.656;7.188;2023-04-23T11:30:19;18.90;99.70
9939;DHT22;5008;50.656;7.188;2023-04-23T11:32:48;19.00;99.50
9939;DHT22;5008;50.656;7.188;2023-04-23T11:35:17;19.00;98.90
9939;DHT22;5008;50.656;7.188;2023-04-23T11:37:45;18.90;99.40
9939;DHT22;5008;50.656;7.188;2023-04-23T11:40:16;19.00;99.90
9939;DHT22;5008;50.656;7.188;2023-04-23T11:42:45;18.90;99.90
9939;DHT22;5008;50.656;7.188;2023-04-23T11:45:17;18.90;99.50
9939;DHT22;5008;50.656;7.188;2023-04-23T11:47:45;18.70;99.90
9939;DHT22;5008;50.656;7.188;2023-04-23T11:50:16;18.50;99.90
9939;DHT22;5008;50.656;7.188;2023-04-23T11:52:43;18.40;99.90
9939;DHT22;5008;50.656;7.188;2023-04-23T11:55:10;18.40;99.90
9939;DHT22;5008;50.656;7.188;2023-04-23T11:57:41;18.40;99.90
9939;DHT22;5008;50.656;7.188;2023-04-23T12:00:13;18.40;99.90
9939;DHT22;5008;50.656;7.188;2023-04-23T12:02:53;18.60;99.90
9939;DHT22;5008;50.656;7.188;2023-04-23T12:05:21;18.60;99.90
9939;DHT22;5008;50.656;7.188;2023-04-23T12:07:51;18.60;99.90
9939;DHT22;5008;50.656;7.188;2023-04-23T12:10:19;18.50;99.50
9939;DHT22;5008;50.656;7.188;2023-04-23T12:12:50;18.60;99.60
9939;DHT22;5008;50.656;7.188;2023-04-23T12:15:18;18.80;99.80
9939;DHT22;5008;50.656;7.188;2023-04-23T12:17:49;19.10;99.80
9939;DHT22;5008;50.656;7.188;2023-04-23T12:20:18;19.20;99.00
9939;DHT22;5008;50.656;7.188;2023-04-23T12:22:46;19.60;99.90
9939;DHT22;5008;50.656;7.188;2023-04-23T12:25:12;20.00;98.70
9939;DHT22;5008;50.656;7.188;2023-04-23T12:27:41;20.00;98.50
9939;DHT22;5008;50.656;7.188;2023-04-23T12:30:10;20.20;98.20
9939;DHT22;5008;50.656;7.188;2023-04-23T12:32:37;20.40;96.50
9939;DHT22;5008;50.656;7.188;2023-04-23T12:35:06;20.50;96.90
9939;DHT22;5008;50.656;7.188;2023-04-23T12:37:35;20.70;97.10
9939;DHT22;5008;50.656;7.188;2023-04-23T12:40:21;20.90;98.20
9939;DHT22;5008;50.656;7.188;2023-04-23T12:42:48;21.20;97.00
9939;DHT22;5008;50.656;7.188;2023-04-23T12:45:14;21.50;97.00
9939;DHT22;5008;50.656;7.188;2023-04-23T12:47:41;21.70;96.30
9939;DHT22;5008;50.656;7.188;2023-04-23T12:50:10;22.00;95.40
9939;DHT22;5008;50.656;7.188;2023-04-23T12:52:37;22.10;94.70
9939;DHT22;5008;50.656;7.188;2023-04-23T12:55:04;21.60;93.90
9939;DHT22;5008;50.656;7.188;2023-04-23T12:57:32;21.20;95.00
9939;DHT22;5008;50.656;7.188;2023-04-23T12:59:58;20.80;95.40
9939;DHT22;5008;50.656;7.188;2023-04-23T13:02:25;20.50;95.80
9939;DHT22;5008;50.656;7.188;2023-04-23T13:04:52;20.40;94.60
9939;DHT22;5008;50.656;7.188;2023-04-23T13:07:26;20.40;96.10
9939;DHT22;5008;50.656;7.188;2023-04-23T13:09:53;20.30;94.40
9939;DHT22;5008;50.656;7.188;2023-04-23T13:12:21;20.20;94.60
9939;DHT22;5008;50.656;7.188;2023-04-23T13:14:48;20.00;94.80
9939;DHT22;5008;50.656;7.188;2023-04-23T13:17:15;19.90;95.50
9939;DHT22;5008;50.656;7.188;2023-04-23T13:19:42;19.70;95.40
9939;DHT22;5008;50.656;7.188;2023-04-23T13:22:09;19.60;96.50
9939;DHT22;5008;50.656;7.188;2023-04-23T13:24:37;19.30;97.00
9939;DHT22;5008;50.656;7.188;2023-04-23T13:27:04;19.10;97.30
9939;DHT22;5008;50.656;7.188;2023-04-23T13:29:31;18.80;98.40
9939;DHT22;5008;50.656;7.188;2023-04-23T13:31:58;18.70;98.20
9939;DHT22;5008;50.656;7.188;2023-04-23T13:34:25;18.60;98.20
9939;DHT22;5008;50.656;7.188;2023-04-23T13:36:51;18.40;98.60
9939;DHT22;5008;50.656;7.188;2023-04-23T13:39:18;18.30;98.90
9939;DHT22;5008;50.656;7.188;2023-04-23T13:41:47;18.30;99.10
9939;DHT22;5008;50.656;7.188;2023-04-23T13:44:14;18.20;98.60
9939;DHT22;5008;50.656;7.188;2023-04-23T13:46:41;18.10;99.10
9939;DHT22;5008;50.656;7.188;2023-04-23T13:49:08;18.10;99.30
9939;DHT22;5008;50.656;7.188;2023-04-23T13:51:34;17.90;99.30
9939;DHT22;5008;50.656;7.188;2023-04-23T13:54:02;17.80;99.80
9939;DHT22;5008;50.656;7.188;2023-04-23T13:56:29;17.80;99.90
9939;DHT22;5008;50.656;7.188;2023-04-23T13:58:57;17.80;99.90
9939;DHT22;5008;50.656;7.188;2023-04-23T14:01:27;17.70;99.80
9939;DHT22;5008;50.656;7.188;2023-04-23T14:03:55;17.70;99.90
9939;DHT22;5008;50.656;7.188;2023-04-23T14:06:21;17.70;99.90
9939;DHT22;5008;50.656;7.188;2023-04-23T14:08:48;17.70;99.90
9939;DHT22;5008;50.656;7.188;2023-04-23T14:11:15;17.60;99.90
9939;DHT22;5008;50.656;7.188;2023-04-23T14:13:42;17.70;99.90
9939;DHT22;5008;50.656;7.188;2023-04-23T14:16:10;17.60;99.90
9939;DHT22;5008;50.656;7.188;2023-04-23T14:18:37;17.60;99.90
9939;DHT22;5008;50.656;7.188;2023-04-23T14:21:04;17.60;99.90
9939;DHT22;5008;50.656;7.188;2023-04-23T14:23:54;17.60;99.10
9939;DHT22;5008;50.656;7.188;2023-04-23T14:26:34;17.70;98.80
9939;DHT22;5008;50.656;7.188;2023-04-23T14:29:03;17.70;99.90
9939;DHT22;5008;50.656;7.188;2023-04-23T14:31:35;17.70;99.20
9939;DHT22;5008;50.656;7.188;2023-04-23T14:34:02;17.80;99.00
9939;DHT22;5008;50.656;7.188;2023-04-23T14:36:29;17.90;99.50
9939;DHT22;5008;50.656;7.188;2023-04-23T14:38:56;18.20;99.50
9939;DHT22;5008;50.656;7.188;2023-04-23T14:41:29;18.40;99.00
9939;DHT22;5008;50.656;7.188;2023-04-23T14:43:56;18.50;98.90
9939;DHT22;5008;50.656;7.188;2023-04-23T14:46:22;18.50;99.00
9939;DHT22;5008;50.656;7.188;2023-04-23T14:48:51;18.30;99.00
9939;DHT22;5008;50.656;7.188;2023-04-23T14:51:18;18.20;99.70
9939;DHT22;5008;50.656;7.188;2023-04-23T14:53:45;18.00;99.40
9939;DHT22;5008;50.656;7.188;2023-04-23T14:56:12;17.90;99.30
9939;DHT22;5008;50.656;7.188;2023-04-23T14:58:39;17.80;99.40
9939;DHT22;5008;50.656;7.188;2023-04-23T15:01:06;17.70;99.90
9939;DHT22;5008;50.656;7.188;2023-04-23T15:03:33;17.50;99.90
9939;DHT22;5008;50.656;7.188;2023-04-23T15:06:02;17.60;99.90
9939;DHT22;5008;50.656;7.188;2023-04-23T15:08:29;17.60;99.90
9939;DHT22;5008;50.656;7.188;2023-04-23T15:10:56;17.60;99.90
9939;DHT22;5008;50.656;7.188;2023-04-23T15:13:43;17.60;99.90
9939;DHT22;5008;50.656;7.188;2023-04-23T15:16:25;17.60;99.90
9939;DHT22;5008;50.656;7.188;2023-04-23T15:18:54;17.60;99.90
9939;DHT22;5008;50.656;7.188;2023-04-23T15:21:22;17.60;99.90
9939;DHT22;5008;50.656;7.188;2023-04-23T15:23:49;17.50;99.90
9939;DHT22;5008;50.656;7.188;2023-04-23T15:26:16;17.40;99.90
9939;DHT22;5008;50.656;7.188;2023-04-23T15:28:43;17.40;99.90
9939;DHT22;5008;50.656;7.188;2023-04-23T15:31:10;17.40;99.90
9939;DHT22;5008;50.656;7.188;2023-04-23T15:33:37;17.40;99.90
9939;DHT22;5008;50.656;7.188;2023-04-23T15:36:05;17.30;99.90
9939;DHT22;5008;50.656;7.188;2023-04-23T15:38:33;17.20;99.90
9939;DHT22;5008;50.656;7.188;2023-04-23T15:41:00;17.20;99.90
9939;DHT22;5008;50.656;7.188;2023-04-23T15:43:27;17.10;99.90
9939;DHT22;5008;50.656;7.188;2023-04-23T15:45:54;17.10;99.90
9939;DHT22;5008;50.656;7.188;2023-04-23T15:48:23;17.00;99.90
9939;DHT22;5008;50.656;7.188;2023-04-23T15:50:50;16.80;99.90
9939;DHT22;5008;50.656;7.188;2023-04-23T15:53:17;16.80;99.90
9939;DHT22;5008;50.656;7.188;2023-04-23T15:55:58;16.70;99.90
9939;DHT22;5008;50.656;7.188;2023-04-23T15:58:24;16.60;99.90
9939;DHT22;5008;50.656;7.188;2023-04-23T16:00:51;16.50;99.90
9939;DHT22;5008;50.656;7.188;2023-04-23T16:03:18;16.50;99.90
9939;DHT22;5008;50.656;7.188;2023-04-23T16:05:47;16.40;99.90
9939;DHT22;5008;50.656;7.188;2023-04-23T16:08:18;16.30;99.90
9939;DHT22;5008;50.656;7.188;2023-04-23T16:11:04;16.30;99.90
9939;DHT22;5008;50.656;7.188;2023-04-23T16:13:33;16.40;99.90
9939;DHT22;5008;50.656;7.188;2023-04-23T16:16:00;16.30;99.90
9939;DHT22;5008;50.656;7.188;2023-04-23T16:18:27;16.20;99.90
9939;DHT22;5008;50.656;7.188;2023-04-23T16:20:54;16.20;99.90
9939;DHT22;5008;50.656;7.188;2023-04-23T16:23:21;16.10;99.90
9939;DHT22;5008;50.656;7.188;2023-04-23T16:25:48;15.90;99.90
9939;DHT22;5008;50.656;7.188;2023-04-23T16:28:16;15.90;99.90
9939;DHT22;5008;50.656;7.188;2023-04-23T16:30:43;15.80;99.90
9939;DHT22;5008;50.656;7.188;2023-04-23T16:33:10;15.70;99.90
9939;DHT22;5008;50.656;7.188;2023-04-23T16:35:37;15.60;99.90
9939;DHT22;5008;50.656;7.188;2023-04-23T16:38:04;15.60;99.90
9939;DHT22;5008;50.656;7.188;2023-04-23T16:40:31;15.60;99.90
9939;DHT22;5008;50.656;7.188;2023-04-23T16:42:58;15.60;99.90
9939;DHT22;5008;50.656;7.188;2023-04-23T16:45:27;15.60;99.90
9939;DHT22;5008;50.656;7.188;2023-04-23T16:47:53;15.50;99.90
9939;DHT22;5008;50.656;7.188;2023-04-23T16:50:21;15.50;99.90
9939;DHT22;5008;50.656;7.188;2023-04-23T16:52:47;15.40;99.90
9939;DHT22;5008;50.656;7.188;2023-04-23T16:55:14;15.40;99.90
9939;DHT22;5008;50.656;7.188;2023-04-23T16:57:41;15.40;99.90
9939;DHT22;5008;50.656;7.188;2023-04-23T17:00:09;15.40;99.90
9939;DHT22;5008;50.656;7.188;2023-04-23T17:02:38;15.30;99.90
9939;DHT22;5008;50.656;7.188;2023-04-23T17:05:07;15.20;99.90
9939;DHT22;5008;50.656;7.188;2023-04-23T17:07:34;15.20;99.90
9939;DHT22;5008;50.656;7.188;2023-04-23T17:10:00;15.10;99.90
9939;DHT22;5008;50.656;7.188;2023-04-23T17:12:27;15.00;99.90
9939;DHT22;5008;50.656;7.188;2023-04-23T17:14:55;15.00;99.90
9939;DHT22;5008;50.656;7.188;2023-04-23T17:17:23;14.90;99.90
9939;DHT22;5008;50.656;7.188;2023-04-23T17:19:51;14.90;99.90
9939;DHT22;5008;50.656;7.188;2023-04-23T17:22:18;14.80;99.90
9939;DHT22;5008;50.656;7.188;2023-04-23T17:24:45;14.80;99.90
9939;DHT22;5008;50.656;7.188;2023-04-23T17:27:12;14.80;99.90
9939;DHT22;5008;50.656;7.188;2023-04-23T17:29:38;14.70;99.90
9939;DHT22;5008;50.656;7.188;2023-04-23T17:32:05;14.70;99.90
9939;DHT22;5008;50.656;7.188;2023-04-23T17:34:32;14.60;99.90
9939;DHT22;5008;50.656;7.188;2023-04-23T17:37:01;14.70;99.90
9939;DHT22;5008;50.656;7.188;2023-04-23T17:39:27;14.70;99.90
9939;DHT22;5008;50.656;7.188;2023-04-23T17:41:54;14.60;99.90
9939;DHT22;5008;50.656;7.188;2023-04-23T17:44:22;14.60;99.90
9939;DHT22;5008;50.656;7.188;2023-04-23T17:46:48;14.60;99.90
9939;DHT22;5008;50.656;7.188;2023-04-23T17:49:16;14.50;99.90
9939;DHT22;5008;50.656;7.188;2023-04-23T17:51:43;14.50;99.90
9939;DHT22;5008;50.656;7.188;2023-04-23T17:54:11;14.50;99.90
9939;DHT22;5008;50.656;7.188;2023-04-23T17:56:39;14.50;99.90
9939;DHT22;5008;50.656;7.188;2023-04-23T17:59:06;14.40;99.90
9939;DHT22;5008;50.656;7.188;2023-04-23T18:01:32;14.40;99.90
9939;DHT22;5008;50.656;7.188;2023-04-23T18:04:06;14.50;99.90
9939;DHT22;5008;50.656;7.188;2023-04-23T18:06:33;14.50;99.90
9939;DHT22;5008;50.656;7.188;2023-04-23T18:09:01;14.50;99.90
9939;DHT22;5008;50.656;7.188;2023-04-23T18:11:31;14.40;99.90
9939;DHT22;5008;50.656;7.188;2023-04-23T18:13:58;14.40;99.90
9939;DHT22;5008;50.656;7.188;2023-04-23T18:16:24;14.40;99.90
9939;DHT22;5008;50.656;7.188;2023-04-23T18:18:51;14.30;99.90
9939;DHT22;5008;50.656;7.188;2023-04-23T18:21:18;14.40;99.90
9939;DHT22;5008;50.656;7.188;2023-04-23T18:23:47;14.30;99.90
9939;DHT22;5008;50.656;7.188;2023-04-23T18:26:13;14.30;99.90
9939;DHT22;5008;50.656;7.188;2023-04-23T18:28:41;14.30;99.90
9939;DHT22;5008;50.656;7.188;2023-04-23T18:31:09;14.30;99.90
9939;DHT22;5008;50.656;7.188;2023-04-23T18:33:40;14.30;99.90
9939;DHT22;5008;50.656;7.188;2023-04-23T18:36:19;14.30;99.90
9939;DHT22;5008;50.656;7.188;2023-04-23T18:38:46;14.30;99.90
9939;DHT22;5008;50.656;7.188;2023-04-23T18:41:14;14.30;99.90
9939;DHT22;5008;50.656;7.188;2023-04-23T18:43:42;14.30;99.90
9939;DHT22;5008;50.656;7.188;2023-04-23T18:46:16;14.20;99.90
9939;DHT22;5008;50.656;7.188;2023-04-23T18:48:50;14.20;99.90
9939;DHT22;5008;50.656;7.188;2023-04-23T18:51:25;14.20;99.90
9939;DHT22;5008;50.656;7.188;2023-04-23T18:53:55;14.20;99.90
9939;DHT22;5008;50.656;7.188;2023-04-23T18:56:22;14.20;99.90
9939;DHT22;5008;50.656;7.188;2023-04-23T18:58:50;14.30;99.90
9939;DHT22;5008;50.656;7.188;2023-04-23T19:01:17;14.30;99.90
9939;DHT22;5008;50.656;7.188;2023-04-23T19:03:45;14.20;99.90
9939;DHT22;5008;50.656;7.188;2023-04-23T19:06:13;14.20;99.90
9939;DHT22;5008;50.656;7.188;2023-04-23T19:08:42;14.10;99.90
9939;DHT22;5008;50.656;7.188;2023-04-23T19:11:16;14.10;99.90
9939;DHT22;5008;50.656;7.188;2023-04-23T19:13:44;14.00;99.90
9939;DHT22;5008;50.656;7.188;2023-04-23T19:16:16;13.90;99.90
9939;DHT22;5008;50.656;7.188;2023-04-23T19:18:44;13.80;99.90
9939;DHT22;5008;50.656;7.188;2023-04-23T19:21:14;13.70;99.90
9939;DHT22;5008;50.656;7.188;2023-04-23T19:23:52;13.60;99.90
9939;DHT22;5008;50.656;7.188;2023-04-23T19:26:21;13.60;99.90
9939;DHT22;5008;50.656;7.188;2023-04-23T19:28:51;13.50;99.90
9939;DHT22;5008;50.656;7.188;2023-04-23T19:31:27;13.40;99.90
9939;DHT22;5008;50.656;7.188;2023-04-23T19:33:56;13.40;99.90
9939;DHT22;5008;50.656;7.188;2023-04-23T19:36:24;13.40;99.90
9939;DHT22;5008;50.656;7.188;2023-04-23T19:38:55;13.40;99.90
9939;DHT22;5008;50.656;7.188;2023-04-23T19:41:26;13.40;99.90
9939;DHT22;5008;50.656;7.188;2023-04-23T19:43:54;13.40;99.90
9939;DHT22;5008;50.656;7.188;2023-04-23T19:46:27;13.40;99.90
9939;DHT22;5008;50.656;7.188;2023-04-23T19:48:59;13.50;99.90
9939;DHT22;5008;50.656;7.188;2023-04-23T19:51:33;13.60;99.90
9939;DHT22;5008;50.656;7.188;2023-04-23T19:54:05;13.70;99.90
9939;DHT22;5008;50.656;7.188;2023-04-23T19:56:39;13.70;99.90
9939;DHT22;5008;50.656;7.188;2023-04-23T19:59:10;13.70;99.90
9939;DHT22;5008;50.656;7.188;2023-04-23T20:01:46;13.80;99.90
9939;DHT22;5008;50.656;7.188;2023-04-23T20:04:14;13.80;99.90
9939;DHT22;5008;50.656;7.188;2023-04-23T20:06:41;13.80;99.90
9939;DHT22;5008;50.656;7.188;2023-04-23T20:09:09;13.90;99.90
9939;DHT22;5008;50.656;7.188;2023-04-23T20:11:46;14.00;99.90
9939;DHT22;5008;50.656;7.188;2023-04-23T20:14:14;13.90;99.90
9939;DHT22;5008;50.656;7.188;2023-04-23T20:16:49;13.90;99.90